sensor_id;sensor_type;location;lat;lon;timestamp;P1;durP1;ratioP1;P2;durP2;ratioP2
53718;SDS011;39616;48.872;9.390;2023-03-12T00:00:51;2.28;;;1.70;;
53718;SDS011;39616;48.872;9.390;2023-03-12T00:03:21;4.35;;;1.95;;
53718;SDS011;39616;48.872;9.390;2023-03-12T00:05:52;4.63;;;2.47;;
53718;SDS011;39616;48.872;9.390;2023-03-12T00:08:22;8.18;;;2.65;;
53718;SDS011;39616;48.872;9.390;2023-03-12T00:10:52;6.20;;;2.30;;
53718;SDS011;39616;48.872;9.390;2023-03-12T00:13:23;5.47;;;2.08;;
53718;SDS011;39616;48.872;9.390;2023-03-12T00:15:53;3.67;;;1.92;;
53718;SDS011;39616;48.872;9.390;2023-03-12T00:18:23;4.57;;;1.92;;
53718;SDS011;39616;48.872;9.390;2023-03-12T00:20:54;2.10;;;1.65;;
53718;SDS011;39616;48.872;9.390;2023-03-12T00:23:24;6.93;;;2.13;;
53718;SDS011;39616;48.872;9.390;2023-03-12T00:26:02;5.07;;;2.63;;
53718;SDS011;39616;48.872;9.390;2023-03-12T00:28:34;6.00;;;1.85;;
53718;SDS011;39616;48.872;9.390;2023-03-12T00:31:12;4.35;;;1.80;;
53718;SDS011;39616;48.872;9.390;2023-03-12T00:33:48;5.38;;;2.13;;
53718;SDS011;39616;48.872;9.390;2023-03-12T00:36:20;4.40;;;2.42;;
53718;SDS011;39616;48.872;9.390;2023-03-12T00:38:54;5.38;;;2.00;;
53718;SDS011;39616;48.872;9.390;2023-03-12T00:41:26;3.97;;;2.25;;
53718;SDS011;39616;48.872;9.390;2023-03-12T00:43:56;6.88;;;2.55;;
53718;SDS011;39616;48.872;9.390;2023-03-12T00:46:27;7.03;;;2.67;;
53718;SDS011;39616;48.872;9.390;2023-03-12T00:48:58;3.03;;;2.25;;
53718;SDS011;39616;48.872;9.390;2023-03-12T00:51:28;4.40;;;1.83;;
53718;SDS011;39616;48.872;9.390;2023-03-12T00:53:58;6.85;;;2.28;;
53718;SDS011;39616;48.872;9.390;2023-03-12T00:56:28;7.53;;;2.58;;
53718;SDS011;39616;48.872;9.390;2023-03-12T00:58:59;4.43;;;1.92;;
53718;SDS011;39616;48.872;9.390;2023-03-12T01:01:29;7.95;;;2.30;;
53718;SDS011;39616;48.872;9.390;2023-03-12T01:04:00;4.07;;;1.80;;
53718;SDS011;39616;48.872;9.390;2023-03-12T01:06:30;6.53;;;2.40;;
53718;SDS011;39616;48.872;9.390;2023-03-12T01:09:04;6.88;;;1.80;;
53718;SDS011;39616;48.872;9.390;2023-03-12T01:11:36;4.05;;;2.42;;
53718;SDS011;39616;48.872;9.390;2023-03-12T01:14:07;3.28;;;2.38;;
53718;SDS011;39616;48.872;9.390;2023-03-12T01:16:38;5.45;;;2.47;;
53718;SDS011;39616;48.872;9.390;2023-03-12T01:19:08;6.85;;;2.95;;
53718;SDS011;39616;48.872;9.390;2023-03-12T01:21:38;5.85;;;2.78;;
53718;SDS011;39616;48.872;9.390;2023-03-12T01:24:09;6.15;;;2.92;;
53718;SDS011;39616;48.872;9.390;2023-03-12T01:26:39;5.43;;;2.22;;
53718;SDS011;39616;48.872;9.390;2023-03-12T01:29:09;5.78;;;2.80;;
53718;SDS011;39616;48.872;9.390;2023-03-12T01:31:40;7.80;;;2.38;;
53718;SDS011;39616;48.872;9.390;2023-03-12T01:34:10;4.38;;;2.53;;
53718;SDS011;39616;48.872;9.390;2023-03-12T01:36:41;7.40;;;3.05;;
53718;SDS011;39616;48.872;9.390;2023-03-12T01:39:11;5.30;;;2.80;;
53718;SDS011;39616;48.872;9.390;2023-03-12T01:41:42;25.35;;;3.90;;
53718;SDS011;39616;48.872;9.390;2023-03-12T01:44:13;6.28;;;3.25;;
53718;SDS011;39616;48.872;9.390;2023-03-12T01:46:44;5.32;;;2.83;;
53718;SDS011;39616;48.872;9.390;2023-03-12T01:49:31;4.97;;;2.75;;
53718;SDS011;39616;48.872;9.390;2023-03-12T01:52:06;5.68;;;3.45;;
53718;SDS011;39616;48.872;9.390;2023-03-12T01:57:38;4.22;;;2.47;;
53718;SDS011;39616;48.872;9.390;2023-03-12T02:00:14;7.97;;;3.35;;
53718;SDS011;39616;48.872;9.390;2023-03-12T02:02:48;7.38;;;3.35;;
53718;SDS011;39616;48.872;9.390;2023-03-12T02:08:14;8.98;;;3.25;;
53718;SDS011;39616;48.872;9.390;2023-03-12T02:10:46;4.05;;;2.67;;
53718;SDS011;39616;48.872;9.390;2023-03-12T02:13:17;7.53;;;3.22;;
53718;SDS011;39616;48.872;9.390;2023-03-12T02:15:47;7.22;;;4.30;;
53718;SDS011;39616;48.872;9.390;2023-03-12T02:18:17;6.53;;;3.10;;
53718;SDS011;39616;48.872;9.390;2023-03-12T02:24:07;10.02;;;2.78;;
53718;SDS011;39616;48.872;9.390;2023-03-12T02:26:57;11.27;;;3.35;;
53718;SDS011;39616;48.872;9.390;2023-03-12T02:29:28;7.60;;;2.95;;
53718;SDS011;39616;48.872;9.390;2023-03-12T02:32:01;7.57;;;3.33;;
53718;SDS011;39616;48.872;9.390;2023-03-12T02:34:33;5.97;;;3.53;;
53718;SDS011;39616;48.872;9.390;2023-03-12T02:37:04;7.15;;;3.55;;
53718;SDS011;39616;48.872;9.390;2023-03-12T02:39:35;11.77;;;2.88;;
53718;SDS011;39616;48.872;9.390;2023-03-12T02:42:07;9.07;;;3.40;;
53718;SDS011;39616;48.872;9.390;2023-03-12T02:44:37;8.07;;;4.10;;
53718;SDS011;39616;48.872;9.390;2023-03-12T02:47:08;7.20;;;3.38;;
53718;SDS011;39616;48.872;9.390;2023-03-12T02:49:38;7.45;;;3.13;;
53718;SDS011;39616;48.872;9.390;2023-03-12T02:52:09;5.55;;;3.10;;
53718;SDS011;39616;48.872;9.390;2023-03-12T02:54:41;5.15;;;2.53;;
53718;SDS011;39616;48.872;9.390;2023-03-12T02:57:11;6.60;;;3.17;;
53718;SDS011;39616;48.872;9.390;2023-03-12T02:59:41;5.85;;;3.92;;
53718;SDS011;39616;48.872;9.390;2023-03-12T03:02:12;4.97;;;3.35;;
53718;SDS011;39616;48.872;9.390;2023-03-12T03:04:42;11.10;;;3.13;;
53718;SDS011;39616;48.872;9.390;2023-03-12T03:07:12;5.72;;;3.30;;
53718;SDS011;39616;48.872;9.390;2023-03-12T03:09:43;7.00;;;3.00;;
53718;SDS011;39616;48.872;9.390;2023-03-12T03:12:14;5.90;;;3.13;;
53718;SDS011;39616;48.872;9.390;2023-03-12T03:14:44;8.48;;;3.28;;
53718;SDS011;39616;48.872;9.390;2023-03-12T03:17:14;6.72;;;2.78;;
53718;SDS011;39616;48.872;9.390;2023-03-12T03:19:45;10.75;;;3.65;;
53718;SDS011;39616;48.872;9.390;2023-03-12T03:22:16;7.85;;;2.97;;
53718;SDS011;39616;48.872;9.390;2023-03-12T03:24:47;6.97;;;3.20;;
53718;SDS011;39616;48.872;9.390;2023-03-12T03:27:17;6.43;;;3.05;;
53718;SDS011;39616;48.872;9.390;2023-03-12T03:29:48;6.78;;;3.00;;
53718;SDS011;39616;48.872;9.390;2023-03-12T03:32:18;5.82;;;3.05;;
53718;SDS011;39616;48.872;9.390;2023-03-12T03:34:48;6.22;;;2.97;;
53718;SDS011;39616;48.872;9.390;2023-03-12T03:37:18;7.50;;;2.80;;
53718;SDS011;39616;48.872;9.390;2023-03-12T03:39:51;7.68;;;4.05;;
53718;SDS011;39616;48.872;9.390;2023-03-12T03:42:21;7.30;;;3.35;;
53718;SDS011;39616;48.872;9.390;2023-03-12T03:44:52;5.75;;;2.90;;
53718;SDS011;39616;48.872;9.390;2023-03-12T03:47:22;10.75;;;3.13;;
53718;SDS011;39616;48.872;9.390;2023-03-12T03:49:52;6.97;;;2.90;;
53718;SDS011;39616;48.872;9.390;2023-03-12T03:52:23;5.45;;;2.40;;
53718;SDS011;39616;48.872;9.390;2023-03-12T03:54:53;8.63;;;3.75;;
53718;SDS011;39616;48.872;9.390;2023-03-12T03:57:26;3.95;;;2.22;;
53718;SDS011;39616;48.872;9.390;2023-03-12T03:59:57;8.73;;;2.83;;
53718;SDS011;39616;48.872;9.390;2023-03-12T04:02:27;8.02;;;3.17;;
53718;SDS011;39616;48.872;9.390;2023-03-12T04:04:58;8.52;;;3.17;;
53718;SDS011;39616;48.872;9.390;2023-03-12T04:07:28;8.05;;;3.10;;
53718;SDS011;39616;48.872;9.390;2023-03-12T04:09:58;6.82;;;3.00;;
53718;SDS011;39616;48.872;9.390;2023-03-12T04:12:29;8.23;;;3.90;;
53718;SDS011;39616;48.872;9.390;2023-03-12T04:14:59;5.68;;;2.83;;
53718;SDS011;39616;48.872;9.390;2023-03-12T04:17:29;5.35;;;2.40;;
53718;SDS011;39616;48.872;9.390;2023-03-12T04:20:00;4.22;;;2.90;;
53718;SDS011;39616;48.872;9.390;2023-03-12T04:22:30;4.95;;;2.67;;
53718;SDS011;39616;48.872;9.390;2023-03-12T04:25:00;6.97;;;3.08;;
53718;SDS011;39616;48.872;9.390;2023-03-12T04:27:31;5.40;;;2.45;;
53718;SDS011;39616;48.872;9.390;2023-03-12T04:30:01;6.53;;;2.92;;
53718;SDS011;39616;48.872;9.390;2023-03-12T04:32:32;4.82;;;2.47;;
53718;SDS011;39616;48.872;9.390;2023-03-12T04:35:02;7.85;;;2.88;;
53718;SDS011;39616;48.872;9.390;2023-03-12T04:37:33;8.90;;;3.30;;
53718;SDS011;39616;48.872;9.390;2023-03-12T04:40:03;11.30;;;3.92;;
53718;SDS011;39616;48.872;9.390;2023-03-12T04:42:36;10.23;;;3.17;;
53718;SDS011;39616;48.872;9.390;2023-03-12T04:45:07;4.03;;;2.70;;
53718;SDS011;39616;48.872;9.390;2023-03-12T04:47:39;7.75;;;3.65;;
53718;SDS011;39616;48.872;9.390;2023-03-12T04:50:10;6.07;;;2.80;;
53718;SDS011;39616;48.872;9.390;2023-03-12T04:52:41;8.95;;;3.75;;
53718;SDS011;39616;48.872;9.390;2023-03-12T04:55:11;3.55;;;2.45;;
53718;SDS011;39616;48.872;9.390;2023-03-12T04:57:41;9.80;;;2.88;;
53718;SDS011;39616;48.872;9.390;2023-03-12T05:00:12;6.25;;;3.00;;
53718;SDS011;39616;48.872;9.390;2023-03-12T05:02:43;4.97;;;2.40;;
53718;SDS011;39616;48.872;9.390;2023-03-12T05:05:13;9.32;;;2.90;;
53718;SDS011;39616;48.872;9.390;2023-03-12T05:07:43;5.45;;;2.80;;
53718;SDS011;39616;48.872;9.390;2023-03-12T05:10:13;3.50;;;2.50;;
53718;SDS011;39616;48.872;9.390;2023-03-12T05:12:44;7.20;;;2.90;;
53718;SDS011;39616;48.872;9.390;2023-03-12T05:15:14;3.83;;;2.33;;
53718;SDS011;39616;48.872;9.390;2023-03-12T05:17:46;2.30;;;1.88;;
53718;SDS011;39616;48.872;9.390;2023-03-12T05:20:17;7.82;;;2.50;;
53718;SDS011;39616;48.872;9.390;2023-03-12T05:22:47;2.95;;;2.20;;
53718;SDS011;39616;48.872;9.390;2023-03-12T05:25:18;3.25;;;2.22;;
53718;SDS011;39616;48.872;9.390;2023-03-12T05:27:48;4.63;;;2.17;;
53718;SDS011;39616;48.872;9.390;2023-03-12T05:30:18;5.40;;;2.35;;
53718;SDS011;39616;48.872;9.390;2023-03-12T05:32:49;4.80;;;2.33;;
53718;SDS011;39616;48.872;9.390;2023-03-12T05:35:19;5.30;;;1.83;;
53718;SDS011;39616;48.872;9.390;2023-03-12T05:37:49;7.35;;;2.13;;
53718;SDS011;39616;48.872;9.390;2023-03-12T05:40:19;4.30;;;2.50;;
53718;SDS011;39616;48.872;9.390;2023-03-12T05:42:50;5.35;;;2.00;;
53718;SDS011;39616;48.872;9.390;2023-03-12T05:45:22;6.15;;;2.17;;
53718;SDS011;39616;48.872;9.390;2023-03-12T05:47:52;4.28;;;1.58;;
53718;SDS011;39616;48.872;9.390;2023-03-12T05:50:22;8.55;;;2.53;;
53718;SDS011;39616;48.872;9.390;2023-03-12T05:52:53;5.72;;;2.47;;
53718;SDS011;39616;48.872;9.390;2023-03-12T05:55:23;6.18;;;1.90;;
53718;SDS011;39616;48.872;9.390;2023-03-12T05:57:53;5.45;;;1.95;;
53718;SDS011;39616;48.872;9.390;2023-03-12T06:00:24;6.53;;;2.22;;
53718;SDS011;39616;48.872;9.390;2023-03-12T06:02:54;4.10;;;2.10;;
53718;SDS011;39616;48.872;9.390;2023-03-12T06:05:24;3.20;;;2.03;;
53718;SDS011;39616;48.872;9.390;2023-03-12T06:07:55;2.20;;;1.88;;
53718;SDS011;39616;48.872;9.390;2023-03-12T06:10:25;6.20;;;2.40;;
53718;SDS011;39616;48.872;9.390;2023-03-12T06:12:56;5.47;;;1.90;;
53718;SDS011;39616;48.872;9.390;2023-03-12T06:15:27;7.70;;;2.08;;
53718;SDS011;39616;48.872;9.390;2023-03-12T06:17:57;7.45;;;2.47;;
53718;SDS011;39616;48.872;9.390;2023-03-12T06:20:27;6.03;;;3.53;;
53718;SDS011;39616;48.872;9.390;2023-03-12T06:22:58;13.75;;;3.53;;
53718;SDS011;39616;48.872;9.390;2023-03-12T06:25:28;5.60;;;3.33;;
53718;SDS011;39616;48.872;9.390;2023-03-12T06:27:58;5.47;;;3.00;;
53718;SDS011;39616;48.872;9.390;2023-03-12T06:30:29;10.25;;;3.22;;
53718;SDS011;39616;48.872;9.390;2023-03-12T06:32:59;8.80;;;2.60;;
53718;SDS011;39616;48.872;9.390;2023-03-12T06:35:29;6.78;;;2.10;;
53718;SDS011;39616;48.872;9.390;2023-03-12T06:38:00;6.28;;;2.13;;
53718;SDS011;39616;48.872;9.390;2023-03-12T06:40:30;5.63;;;2.53;;
53718;SDS011;39616;48.872;9.390;2023-03-12T06:43:00;2.92;;;1.92;;
53718;SDS011;39616;48.872;9.390;2023-03-12T06:45:30;3.50;;;2.47;;
53718;SDS011;39616;48.872;9.390;2023-03-12T06:48:01;3.70;;;2.15;;
53718;SDS011;39616;48.872;9.390;2023-03-12T06:50:31;3.90;;;2.60;;
53718;SDS011;39616;48.872;9.390;2023-03-12T06:53:01;4.80;;;2.15;;
53718;SDS011;39616;48.872;9.390;2023-03-12T06:55:32;5.00;;;2.28;;
53718;SDS011;39616;48.872;9.390;2023-03-12T06:58:02;6.30;;;2.67;;
53718;SDS011;39616;48.872;9.390;2023-03-12T07:00:33;7.40;;;2.13;;
53718;SDS011;39616;48.872;9.390;2023-03-12T07:03:04;7.88;;;2.47;;
53718;SDS011;39616;48.872;9.390;2023-03-12T07:05:34;4.75;;;2.50;;
53718;SDS011;39616;48.872;9.390;2023-03-12T07:08:04;4.25;;;2.50;;
53718;SDS011;39616;48.872;9.390;2023-03-12T07:10:35;7.50;;;2.95;;
53718;SDS011;39616;48.872;9.390;2023-03-12T07:13:05;3.63;;;2.80;;
53718;SDS011;39616;48.872;9.390;2023-03-12T07:15:36;9.60;;;3.17;;
53718;SDS011;39616;48.872;9.390;2023-03-12T07:18:07;7.18;;;2.60;;
53718;SDS011;39616;48.872;9.390;2023-03-12T07:20:41;3.00;;;2.35;;
53718;SDS011;39616;48.872;9.390;2023-03-12T07:23:12;4.45;;;2.70;;
53718;SDS011;39616;48.872;9.390;2023-03-12T07:25:43;7.80;;;2.40;;
53718;SDS011;39616;48.872;9.390;2023-03-12T07:28:14;4.78;;;2.47;;
53718;SDS011;39616;48.872;9.390;2023-03-12T07:30:46;6.72;;;3.45;;
53718;SDS011;39616;48.872;9.390;2023-03-12T07:33:22;8.45;;;3.05;;
53718;SDS011;39616;48.872;9.390;2023-03-12T07:35:52;6.30;;;3.25;;
53718;SDS011;39616;48.872;9.390;2023-03-12T07:38:22;4.75;;;3.42;;
53718;SDS011;39616;48.872;9.390;2023-03-12T07:40:53;6.82;;;3.35;;
53718;SDS011;39616;48.872;9.390;2023-03-12T07:43:25;6.43;;;3.08;;
53718;SDS011;39616;48.872;9.390;2023-03-12T07:45:56;7.05;;;3.25;;
53718;SDS011;39616;48.872;9.390;2023-03-12T07:48:26;5.95;;;3.33;;
53718;SDS011;39616;48.872;9.390;2023-03-12T07:50:56;7.35;;;3.88;;
53718;SDS011;39616;48.872;9.390;2023-03-12T07:53:27;6.70;;;3.10;;
53718;SDS011;39616;48.872;9.390;2023-03-12T07:55:57;5.75;;;3.17;;
53718;SDS011;39616;48.872;9.390;2023-03-12T07:58:27;10.38;;;3.38;;
53718;SDS011;39616;48.872;9.390;2023-03-12T08:00:58;10.27;;;4.00;;
53718;SDS011;39616;48.872;9.390;2023-03-12T08:03:28;5.30;;;3.10;;
53718;SDS011;39616;48.872;9.390;2023-03-12T08:06:00;5.78;;;3.00;;
53718;SDS011;39616;48.872;9.390;2023-03-12T08:08:32;8.07;;;3.38;;
53718;SDS011;39616;48.872;9.390;2023-03-12T08:11:03;4.70;;;3.35;;
53718;SDS011;39616;48.872;9.390;2023-03-12T08:13:34;6.13;;;3.60;;
53718;SDS011;39616;48.872;9.390;2023-03-12T08:16:04;5.60;;;4.22;;
53718;SDS011;39616;48.872;9.390;2023-03-12T08:18:35;8.13;;;3.92;;
53718;SDS011;39616;48.872;9.390;2023-03-12T08:21:05;4.43;;;3.20;;
53718;SDS011;39616;48.872;9.390;2023-03-12T08:23:36;8.93;;;4.22;;
53718;SDS011;39616;48.872;9.390;2023-03-12T08:26:07;6.93;;;3.25;;
53718;SDS011;39616;48.872;9.390;2023-03-12T08:28:37;8.18;;;4.68;;
53718;SDS011;39616;48.872;9.390;2023-03-12T08:31:08;7.18;;;4.53;;
53718;SDS011;39616;48.872;9.390;2023-03-12T08:33:38;10.88;;;4.10;;
53718;SDS011;39616;48.872;9.390;2023-03-12T08:36:12;10.07;;;3.20;;
53718;SDS011;39616;48.872;9.390;2023-03-12T08:38:42;14.27;;;4.03;;
53718;SDS011;39616;48.872;9.390;2023-03-12T08:41:12;5.80;;;3.63;;
53718;SDS011;39616;48.872;9.390;2023-03-12T08:43:43;4.93;;;3.72;;
53718;SDS011;39616;48.872;9.390;2023-03-12T08:46:13;6.07;;;4.22;;
53718;SDS011;39616;48.872;9.390;2023-03-12T08:48:43;5.35;;;3.85;;
53718;SDS011;39616;48.872;9.390;2023-03-12T08:51:14;7.78;;;3.85;;
53718;SDS011;39616;48.872;9.390;2023-03-12T08:53:44;9.05;;;4.30;;
53718;SDS011;39616;48.872;9.390;2023-03-12T08:56:14;8.13;;;4.60;;
53718;SDS011;39616;48.872;9.390;2023-03-12T08:58:44;9.68;;;4.82;;
53718;SDS011;39616;48.872;9.390;2023-03-12T09:01:15;7.10;;;4.85;;
53718;SDS011;39616;48.872;9.390;2023-03-12T09:03:45;7.47;;;4.90;;
53718;SDS011;39616;48.872;9.390;2023-03-12T09:06:18;7.38;;;4.50;;
53718;SDS011;39616;48.872;9.390;2023-03-12T09:08:48;10.25;;;4.28;;
53718;SDS011;39616;48.872;9.390;2023-03-12T09:11:20;10.43;;;5.40;;
53718;SDS011;39616;48.872;9.390;2023-03-12T09:13:51;9.13;;;4.88;;
53718;SDS011;39616;48.872;9.390;2023-03-12T09:16:21;9.23;;;5.05;;
53718;SDS011;39616;48.872;9.390;2023-03-12T09:18:51;9.40;;;5.68;;
53718;SDS011;39616;48.872;9.390;2023-03-12T09:21:22;9.82;;;6.05;;
53718;SDS011;39616;48.872;9.390;2023-03-12T09:23:52;12.27;;;5.65;;
53718;SDS011;39616;48.872;9.390;2023-03-12T09:26:22;7.88;;;5.50;;
53718;SDS011;39616;48.872;9.390;2023-03-12T09:28:53;12.10;;;6.30;;
53718;SDS011;39616;48.872;9.390;2023-03-12T09:31:23;14.55;;;5.57;;
53718;SDS011;39616;48.872;9.390;2023-03-12T09:33:54;8.48;;;5.68;;
53718;SDS011;39616;48.872;9.390;2023-03-12T09:36:24;9.38;;;5.32;;
53718;SDS011;39616;48.872;9.390;2023-03-12T09:38:54;10.13;;;5.20;;
53718;SDS011;39616;48.872;9.390;2023-03-12T09:41:26;16.88;;;6.43;;
53718;SDS011;39616;48.872;9.390;2023-03-12T09:44:10;11.30;;;5.72;;
53718;SDS011;39616;48.872;9.390;2023-03-12T09:46:50;9.60;;;5.00;;
53718;SDS011;39616;48.872;9.390;2023-03-12T09:51:56;10.07;;;5.32;;
53718;SDS011;39616;48.872;9.390;2023-03-12T09:54:43;9.23;;;4.75;;
53718;SDS011;39616;48.872;9.390;2023-03-12T09:57:18;8.05;;;4.53;;
53718;SDS011;39616;48.872;9.390;2023-03-12T09:59:52;8.20;;;4.40;;
53718;SDS011;39616;48.872;9.390;2023-03-12T10:02:42;8.15;;;4.65;;
53718;SDS011;39616;48.872;9.390;2023-03-12T10:05:25;7.55;;;4.00;;
53718;SDS011;39616;48.872;9.390;2023-03-12T10:08:14;6.63;;;4.10;;
53718;SDS011;39616;48.872;9.390;2023-03-12T10:10:55;9.05;;;3.60;;
53718;SDS011;39616;48.872;9.390;2023-03-12T10:13:41;6.07;;;3.92;;
53718;SDS011;39616;48.872;9.390;2023-03-12T10:16:34;8.05;;;3.97;;
53718;SDS011;39616;48.872;9.390;2023-03-12T10:27:28;6.22;;;3.83;;
53718;SDS011;39616;48.872;9.390;2023-03-12T10:29:59;4.68;;;3.22;;
53718;SDS011;39616;48.872;9.390;2023-03-12T10:32:40;8.93;;;3.92;;
53718;SDS011;39616;48.872;9.390;2023-03-12T10:35:19;7.65;;;3.50;;
53718;SDS011;39616;48.872;9.390;2023-03-12T10:40:27;8.32;;;3.17;;
53718;SDS011;39616;48.872;9.390;2023-03-12T10:43:00;5.97;;;3.50;;
53718;SDS011;39616;48.872;9.390;2023-03-12T10:45:40;8.45;;;5.00;;
53718;SDS011;39616;48.872;9.390;2023-03-12T10:48:18;7.13;;;3.88;;
53718;SDS011;39616;48.872;9.390;2023-03-12T10:53:35;3.58;;;2.75;;
53718;SDS011;39616;48.872;9.390;2023-03-12T10:56:09;6.93;;;3.88;;
53718;SDS011;39616;48.872;9.390;2023-03-12T10:58:42;4.68;;;2.80;;
53718;SDS011;39616;48.872;9.390;2023-03-12T11:01:23;6.00;;;3.35;;
53718;SDS011;39616;48.872;9.390;2023-03-12T11:04:14;4.40;;;2.80;;
53718;SDS011;39616;48.872;9.390;2023-03-12T11:10:11;7.72;;;3.45;;
53718;SDS011;39616;48.872;9.390;2023-03-12T11:12:51;6.43;;;3.95;;
53718;SDS011;39616;48.872;9.390;2023-03-12T11:20:50;3.92;;;3.03;;
53718;SDS011;39616;48.872;9.390;2023-03-12T11:23:42;3.45;;;2.33;;
53718;SDS011;39616;48.872;9.390;2023-03-12T11:28:49;3.08;;;2.10;;
53718;SDS011;39616;48.872;9.390;2023-03-12T11:31:57;6.10;;;2.50;;
53718;SDS011;39616;48.872;9.390;2023-03-12T11:34:32;2.78;;;1.83;;
53718;SDS011;39616;48.872;9.390;2023-03-12T11:43:06;3.10;;;1.88;;
53718;SDS011;39616;48.872;9.390;2023-03-12T11:54:41;1.83;;;1.33;;
53718;SDS011;39616;48.872;9.390;2023-03-12T12:00:36;5.47;;;0.80;;
53718;SDS011;39616;48.872;9.390;2023-03-12T12:06:20;1.45;;;0.70;;
53718;SDS011;39616;48.872;9.390;2023-03-12T12:22:24;2.33;;;1.10;;
53718;SDS011;39616;48.872;9.390;2023-03-12T12:36:09;3.30;;;1.48;;
53718;SDS011;39616;48.872;9.390;2023-03-12T12:38:41;4.22;;;1.65;;
53718;SDS011;39616;48.872;9.390;2023-03-12T12:44:01;2.00;;;1.20;;
53718;SDS011;39616;48.872;9.390;2023-03-12T12:46:41;2.40;;;1.10;;
53718;SDS011;39616;48.872;9.390;2023-03-12T12:52:00;2.17;;;1.00;;
53718;SDS011;39616;48.872;9.390;2023-03-12T12:54:53;3.92;;;0.70;;
53718;SDS011;39616;48.872;9.390;2023-03-12T12:57:46;4.25;;;0.50;;
53718;SDS011;39616;48.872;9.390;2023-03-12T13:00:28;2.92;;;0.50;;
53718;SDS011;39616;48.872;9.390;2023-03-12T13:03:20;4.97;;;0.88;;
53718;SDS011;39616;48.872;9.390;2023-03-12T13:13:46;3.22;;;0.70;;
53718;SDS011;39616;48.872;9.390;2023-03-12T13:22:18;2.40;;;0.70;;
53718;SDS011;39616;48.872;9.390;2023-03-12T13:24:57;2.63;;;0.70;;
53718;SDS011;39616;48.872;9.390;2023-03-12T13:27:39;3.22;;;1.10;;
53718;SDS011;39616;48.872;9.390;2023-03-12T13:33:35;3.83;;;0.90;;
53718;SDS011;39616;48.872;9.390;2023-03-12T13:38:57;4.07;;;0.90;;
53718;SDS011;39616;48.872;9.390;2023-03-12T13:50:11;2.75;;;0.73;;
53718;SDS011;39616;48.872;9.390;2023-03-12T13:52:48;3.17;;;0.70;;
53718;SDS011;39616;48.872;9.390;2023-03-12T13:55:26;3.83;;;0.60;;
53718;SDS011;39616;48.872;9.390;2023-03-12T14:00:36;2.10;;;0.80;;
53718;SDS011;39616;48.872;9.390;2023-03-12T14:08:41;2.60;;;0.65;;
53718;SDS011;39616;48.872;9.390;2023-03-12T14:17:17;3.05;;;0.70;;
53718;SDS011;39616;48.872;9.390;2023-03-12T14:22:58;9.23;;;0.90;;
53718;SDS011;39616;48.872;9.390;2023-03-12T14:25:37;5.13;;;1.08;;
53718;SDS011;39616;48.872;9.390;2023-03-12T14:28:12;4.72;;;0.80;;
53718;SDS011;39616;48.872;9.390;2023-03-12T14:31:02;6.85;;;1.10;;
53718;SDS011;39616;48.872;9.390;2023-03-12T14:36:38;4.30;;;0.77;;
53718;SDS011;39616;48.872;9.390;2023-03-12T14:42:16;3.08;;;0.80;;
53718;SDS011;39616;48.872;9.390;2023-03-12T14:44:53;6.13;;;0.68;;
53718;SDS011;39616;48.872;9.390;2023-03-12T14:47:45;3.08;;;0.60;;
53718;SDS011;39616;48.872;9.390;2023-03-12T14:52:53;3.13;;;0.70;;
53718;SDS011;39616;48.872;9.390;2023-03-12T14:55:24;4.47;;;0.55;;
53718;SDS011;39616;48.872;9.390;2023-03-12T14:58:03;4.20;;;0.50;;
53718;SDS011;39616;48.872;9.390;2023-03-12T15:00:34;1.83;;;0.40;;
53718;SDS011;39616;48.872;9.390;2023-03-12T15:03:05;4.05;;;0.63;;
53718;SDS011;39616;48.872;9.390;2023-03-12T15:05:47;3.90;;;0.80;;
53718;SDS011;39616;48.872;9.390;2023-03-12T15:08:19;3.53;;;1.05;;
53718;SDS011;39616;48.872;9.390;2023-03-12T15:10:54;4.32;;;0.70;;
53718;SDS011;39616;48.872;9.390;2023-03-12T15:13:26;4.00;;;0.65;;
53718;SDS011;39616;48.872;9.390;2023-03-12T15:15:57;6.55;;;0.80;;
53718;SDS011;39616;48.872;9.390;2023-03-12T15:18:28;2.85;;;0.52;;
53718;SDS011;39616;48.872;9.390;2023-03-12T15:21:00;5.80;;;0.80;;
53718;SDS011;39616;48.872;9.390;2023-03-12T15:23:32;2.53;;;0.70;;
53718;SDS011;39616;48.872;9.390;2023-03-12T15:26:09;4.60;;;0.60;;
53718;SDS011;39616;48.872;9.390;2023-03-12T15:31:12;4.35;;;0.70;;
53718;SDS011;39616;48.872;9.390;2023-03-12T15:33:44;2.50;;;0.68;;
53718;SDS011;39616;48.872;9.390;2023-03-12T15:39:11;4.70;;;0.80;;
53718;SDS011;39616;48.872;9.390;2023-03-12T15:41:49;3.75;;;0.93;;
53718;SDS011;39616;48.872;9.390;2023-03-12T15:44:20;5.35;;;1.35;;
53718;SDS011;39616;48.872;9.390;2023-03-12T15:47:01;4.20;;;0.93;;
53718;SDS011;39616;48.872;9.390;2023-03-12T15:49:35;3.38;;;0.82;;
53718;SDS011;39616;48.872;9.390;2023-03-12T15:57:46;2.70;;;0.60;;
53718;SDS011;39616;48.872;9.390;2023-03-12T16:00:25;4.38;;;0.63;;
53718;SDS011;39616;48.872;9.390;2023-03-12T16:03:16;4.05;;;0.70;;
53718;SDS011;39616;48.872;9.390;2023-03-12T16:05:49;4.45;;;0.63;;
53718;SDS011;39616;48.872;9.390;2023-03-12T16:11:31;4.07;;;1.02;;
53718;SDS011;39616;48.872;9.390;2023-03-12T16:16:46;6.22;;;0.80;;
53718;SDS011;39616;48.872;9.390;2023-03-12T16:19:18;4.45;;;0.80;;
53718;SDS011;39616;48.872;9.390;2023-03-12T16:21:49;3.83;;;1.05;;
53718;SDS011;39616;48.872;9.390;2023-03-12T16:24:20;6.65;;;0.70;;
53718;SDS011;39616;48.872;9.390;2023-03-12T16:26:54;1.52;;;0.60;;
53718;SDS011;39616;48.872;9.390;2023-03-12T16:29:36;1.55;;;0.47;;
53718;SDS011;39616;48.872;9.390;2023-03-12T16:32:11;3.65;;;0.60;;
53718;SDS011;39616;48.872;9.390;2023-03-12T16:34:43;3.10;;;0.60;;
53718;SDS011;39616;48.872;9.390;2023-03-12T16:37:14;5.78;;;1.00;;
53718;SDS011;39616;48.872;9.390;2023-03-12T16:39:44;4.20;;;0.75;;
53718;SDS011;39616;48.872;9.390;2023-03-12T16:42:15;6.40;;;0.80;;
53718;SDS011;39616;48.872;9.390;2023-03-12T16:44:47;3.53;;;0.80;;
53718;SDS011;39616;48.872;9.390;2023-03-12T16:47:17;3.55;;;0.70;;
53718;SDS011;39616;48.872;9.390;2023-03-12T16:49:47;6.10;;;0.88;;
53718;SDS011;39616;48.872;9.390;2023-03-12T16:52:19;4.47;;;0.80;;
53718;SDS011;39616;48.872;9.390;2023-03-12T16:54:50;5.20;;;1.13;;
53718;SDS011;39616;48.872;9.390;2023-03-12T17:00:06;5.50;;;0.70;;
53718;SDS011;39616;48.872;9.390;2023-03-12T17:02:40;8.98;;;0.80;;
53718;SDS011;39616;48.872;9.390;2023-03-12T17:05:11;9.18;;;1.35;;
53718;SDS011;39616;48.872;9.390;2023-03-12T17:07:42;4.78;;;0.90;;
53718;SDS011;39616;48.872;9.390;2023-03-12T17:10:13;7.40;;;0.98;;
53718;SDS011;39616;48.872;9.390;2023-03-12T17:12:44;3.58;;;0.80;;
53718;SDS011;39616;48.872;9.390;2023-03-12T17:15:25;7.47;;;1.15;;
53718;SDS011;39616;48.872;9.390;2023-03-12T17:17:59;7.13;;;1.23;;
53718;SDS011;39616;48.872;9.390;2023-03-12T17:20:32;11.15;;;2.67;;
53718;SDS011;39616;48.872;9.390;2023-03-12T17:23:05;9.85;;;2.15;;
53718;SDS011;39616;48.872;9.390;2023-03-12T17:25:37;3.30;;;1.10;;
53718;SDS011;39616;48.872;9.390;2023-03-12T17:28:09;8.85;;;1.20;;
53718;SDS011;39616;48.872;9.390;2023-03-12T17:30:40;5.68;;;0.70;;
53718;SDS011;39616;48.872;9.390;2023-03-12T17:33:14;8.55;;;1.30;;
53718;SDS011;39616;48.872;9.390;2023-03-12T17:35:54;5.57;;;1.05;;
53718;SDS011;39616;48.872;9.390;2023-03-12T17:38:26;9.55;;;1.30;;
53718;SDS011;39616;48.872;9.390;2023-03-12T17:40:58;3.50;;;0.80;;
53718;SDS011;39616;48.872;9.390;2023-03-12T17:43:29;4.50;;;0.98;;
53718;SDS011;39616;48.872;9.390;2023-03-12T17:46:06;6.32;;;0.80;;
53718;SDS011;39616;48.872;9.390;2023-03-12T17:48:38;8.38;;;0.70;;
53718;SDS011;39616;48.872;9.390;2023-03-12T17:51:08;8.75;;;1.10;;
53718;SDS011;39616;48.872;9.390;2023-03-12T17:53:39;7.07;;;1.00;;
53718;SDS011;39616;48.872;9.390;2023-03-12T17:56:13;7.65;;;1.15;;
53718;SDS011;39616;48.872;9.390;2023-03-12T17:58:47;6.88;;;1.02;;
53718;SDS011;39616;48.872;9.390;2023-03-12T18:01:17;13.18;;;1.50;;